createdAt,value
2018-04-07T00:03:12.891Z,11.10
2018-04-07T00:06:36.304Z,7.47
2018-04-07T00:09:59.670Z,8.60
2018-04-07T00:13:23.038Z,8.67
2018-04-07T00:16:47.160Z,9.73
2018-04-07T00:20:10.448Z,8.70
2018-04-07T00:23:33.726Z,9.37
2018-04-07T00:26:57.078Z,8.30
2018-04-07T00:30:20.369Z,10.50
2018-04-07T00:33:43.666Z,11.57
2018-04-07T00:37:07.014Z,9.23
2018-04-07T00:40:30.364Z,10.23
2018-04-07T00:43:53.766Z,9.37
2018-04-07T00:47:18.304Z,10.13
2018-04-07T00:50:42.418Z,10.07
2018-04-07T00:54:05.716Z,9.80
2018-04-07T00:57:29.059Z,10.63
2018-04-07T01:00:52.390Z,10.83
2018-04-07T01:04:15.674Z,9.00
2018-04-07T01:07:38.994Z,10.87
2018-04-07T01:11:02.331Z,10.30
2018-04-07T01:14:25.609Z,9.60
2018-04-07T01:17:48.969Z,9.80
2018-04-07T01:21:12.270Z,11.73
2018-04-07T01:24:35.612Z,13.43
2018-04-07T01:27:58.895Z,11.97
2018-04-07T01:31:22.984Z,9.97
2018-04-07T01:34:46.276Z,12.17
2018-04-07T01:38:09.562Z,12.37
2018-04-07T01:41:32.902Z,11.97
2018-04-07T01:44:56.207Z,13.43
2018-04-07T01:48:19.540Z,14.43
2018-04-07T01:51:42.834Z,13.90
2018-04-07T01:55:06.127Z,11.67
2018-04-07T01:58:29.392Z,15.13
2018-04-07T02:01:52.703Z,13.57
2018-04-07T02:05:16.050Z,12.77
2018-04-07T02:08:39.477Z,14.47
2018-04-07T02:12:02.757Z,15.00
2018-04-07T02:15:26.086Z,13.00
2018-04-07T02:18:50.128Z,12.07
2018-04-07T02:22:13.434Z,12.90
2018-04-07T02:25:36.764Z,12.10
2018-04-07T02:29:00.094Z,13.73
2018-04-07T02:32:24.220Z,13.83
2018-04-07T02:35:47.597Z,15.40
2018-04-07T02:39:10.943Z,14.70
2018-04-07T02:42:34.283Z,14.53
2018-04-07T02:45:57.574Z,12.13
2018-04-07T02:49:20.944Z,14.80
2018-04-07T02:52:44.287Z,14.73
2018-04-07T02:56:07.660Z,15.67
2018-04-07T02:59:31.016Z,15.70
2018-04-07T03:02:54.350Z,16.17
2018-04-07T03:06:17.632Z,14.20
2018-04-07T03:09:40.968Z,15.47
2018-04-07T03:13:05.065Z,15.30
2018-04-07T03:16:28.348Z,13.97
2018-04-07T03:19:51.645Z,14.10
2018-04-07T03:23:14.936Z,15.73
2018-04-07T03:26:38.320Z,18.37
2018-04-07T03:30:02.371Z,13.73
2018-04-07T03:33:25.728Z,13.43
2018-04-07T03:36:49.162Z,14.40
2018-04-07T03:40:12.470Z,16.40
2018-04-07T03:43:35.803Z,14.83
2018-04-07T03:46:59.234Z,20.00
2018-04-07T03:50:22.658Z,13.83
2018-04-07T03:53:45.944Z,13.37
2018-04-07T03:57:09.225Z,14.17
2018-04-07T04:00:32.582Z,11.47
2018-04-07T04:03:55.902Z,14.00
2018-04-07T04:07:19.974Z,11.80
2018-04-07T04:10:43.332Z,11.37
2018-04-07T04:14:06.672Z,10.73
2018-04-07T04:17:30.022Z,11.80
2018-04-07T04:20:53.320Z,16.07
2018-04-07T04:24:16.654Z,13.27
2018-04-07T04:27:39.953Z,13.73
2018-04-07T04:31:03.296Z,11.57
2018-04-07T04:34:26.569Z,11.53
2018-04-07T04:37:49.864Z,14.33
2018-04-07T04:41:13.190Z,16.70
2018-04-07T04:44:37.230Z,12.00
2018-04-07T04:48:00.523Z,13.43
2018-04-07T04:51:23.834Z,12.23
2018-04-07T04:54:47.182Z,13.07
2018-04-07T04:58:10.494Z,14.07
2018-04-07T05:01:34.786Z,12.57
2018-04-07T05:04:58.846Z,12.03
2018-04-07T05:08:22.201Z,14.20
2018-04-07T05:11:45.468Z,14.17
2018-04-07T05:15:08.740Z,13.13
2018-04-07T05:18:32.042Z,14.13
2018-04-07T05:21:55.334Z,12.73
2018-04-07T05:25:18.686Z,16.43
2018-04-07T05:28:41.974Z,16.77
2018-04-07T05:32:06.292Z,15.80
2018-04-07T05:35:29.637Z,14.50
2018-04-07T05:38:52.927Z,15.20
2018-04-07T05:42:16.270Z,15.77
2018-04-07T05:45:39.573Z,15.23
2018-04-07T05:49:02.916Z,18.60
2018-04-07T05:52:26.272Z,16.60
2018-04-07T05:55:49.577Z,14.70
2018-04-07T05:59:12.939Z,17.67
2018-04-07T06:02:37.064Z,15.53
2018-04-07T06:06:00.360Z,17.73
2018-04-07T06:09:23.697Z,15.00
2018-04-07T06:12:47.799Z,17.40
2018-04-07T06:16:11.064Z,18.13
2018-04-07T06:19:34.376Z,15.87
2018-04-07T06:22:57.742Z,17.33
2018-04-07T06:34:15.672Z,16.47
2018-04-07T06:37:39.715Z,17.60
2018-04-07T06:41:03.025Z,20.40
2018-04-07T06:44:27.067Z,17.93
2018-04-07T06:47:50.363Z,17.93
2018-04-07T06:51:13.662Z,16.97
2018-04-07T06:54:37.020Z,16.13
2018-04-07T06:58:00.368Z,19.60
2018-04-07T07:01:23.753Z,16.07
2018-04-07T07:04:47.879Z,20.13
2018-04-07T07:08:12.186Z,21.20
2018-04-07T07:11:35.546Z,18.53
2018-04-07T07:14:58.908Z,20.47
2018-04-07T07:18:22.329Z,21.83
2018-04-07T07:21:45.625Z,18.50
2018-04-07T07:25:10.283Z,19.30
2018-04-07T07:28:33.628Z,17.70
2018-04-07T07:31:56.951Z,19.90
2018-04-07T07:35:21.140Z,20.00
2018-04-07T07:38:44.498Z,19.80
2018-04-07T07:42:07.876Z,18.67
2018-04-07T07:45:31.225Z,19.57
2018-04-07T07:48:54.573Z,18.53
2018-04-07T07:52:17.939Z,17.87
2018-04-07T07:55:41.331Z,18.10
2018-04-07T07:59:05.486Z,16.93
2018-04-07T08:02:28.849Z,20.00
2018-04-07T08:05:52.173Z,18.37
2018-04-07T08:09:15.526Z,16.20
2018-04-07T08:12:38.999Z,18.43
2018-04-07T08:16:02.418Z,18.33
2018-04-07T08:19:26.532Z,20.00
2018-04-07T08:22:49.811Z,17.17
2018-04-07T08:26:13.348Z,17.77
2018-04-07T08:29:36.618Z,19.33
2018-04-07T08:32:59.989Z,16.90
2018-04-07T08:36:24.127Z,15.93
2018-04-07T08:39:47.680Z,16.60
2018-04-07T08:43:11.105Z,17.97
2018-04-07T08:46:34.474Z,19.47
2018-04-07T18:35:33.132Z,13.67
2018-04-07T18:38:57.003Z,14.20
2018-04-07T18:42:20.535Z,15.17
2018-04-07T18:45:45.031Z,15.57
2018-04-07T18:49:08.667Z,16.80
2018-04-07T18:52:32.149Z,13.77
2018-04-07T18:55:56.642Z,17.27
2018-04-07T18:59:20.015Z,17.67
2018-04-07T19:02:43.355Z,14.93
2018-04-07T19:06:07.475Z,15.00
2018-04-07T19:09:31.601Z,17.47
2018-04-07T19:12:54.956Z,18.97
2018-04-07T19:16:18.309Z,16.77
2018-04-07T19:19:41.666Z,13.70
2018-04-07T19:23:05.029Z,13.47
2018-04-07T19:26:28.377Z,17.70
2018-04-07T19:29:51.882Z,12.17
2018-04-07T19:33:15.223Z,11.53
2018-04-07T19:36:38.520Z,12.53
2018-04-07T19:40:01.983Z,13.57
2018-04-07T19:43:26.184Z,13.70
2018-04-07T19:46:49.639Z,14.57
2018-04-07T19:50:13.766Z,15.13
2018-04-07T19:53:37.116Z,15.27
2018-04-07T19:57:00.588Z,15.67
2018-04-07T20:00:24.754Z,14.73
2018-04-07T20:03:48.868Z,13.03
2018-04-07T20:07:12.297Z,11.53
2018-04-07T20:10:35.574Z,11.47
2018-04-07T20:13:58.859Z,13.13
2018-04-07T20:17:22.217Z,11.07
2018-04-07T20:20:45.499Z,11.90
2018-04-07T20:24:08.815Z,10.00
2018-04-07T20:27:32.157Z,11.50
2018-04-07T20:30:55.492Z,11.77
2018-04-07T20:34:18.798Z,12.50
2018-04-07T20:37:42.202Z,11.27
2018-04-07T20:41:06.311Z,9.30
2018-04-07T20:44:34.797Z,10.50
2018-04-07T20:47:58.926Z,12.93
2018-04-07T20:51:22.261Z,11.13
2018-04-07T20:54:45.590Z,12.93
2018-04-07T20:58:09.631Z,12.47
2018-04-07T21:01:41.779Z,11.70
2018-04-07T21:05:05.068Z,13.17
2018-04-07T21:08:28.368Z,12.43
2018-04-07T21:11:51.712Z,11.60
2018-04-07T21:15:15.012Z,20.70
2018-04-07T21:18:39.152Z,10.67
2018-04-07T21:22:02.521Z,13.67
2018-04-07T21:25:25.872Z,10.13
2018-04-07T21:28:49.227Z,13.43
2018-04-07T21:32:12.951Z,12.43
2018-04-07T21:35:36.368Z,10.07
2018-04-07T21:39:00.468Z,14.83
2018-04-07T21:42:23.827Z,11.63
2018-04-07T21:45:47.172Z,10.10
2018-04-07T21:49:10.522Z,11.53
2018-04-07T21:52:33.795Z,11.70
2018-04-07T21:55:57.097Z,11.37
2018-04-07T21:59:20.503Z,11.67
2018-04-07T22:02:43.818Z,10.30
2018-04-07T22:06:07.188Z,12.77
2018-04-07T22:09:31.259Z,10.83
2018-04-07T22:12:54.652Z,13.07
2018-04-07T22:16:18.104Z,16.20
2018-04-07T22:19:41.405Z,10.77
2018-04-07T22:23:04.786Z,11.17
2018-04-07T22:26:28.830Z,9.70
2018-04-07T22:29:52.124Z,12.67
2018-04-07T22:33:15.487Z,12.23
2018-04-07T22:36:38.838Z,11.43
2018-04-07T22:40:02.316Z,11.43
2018-04-07T22:43:25.763Z,10.18
2018-04-07T22:46:49.044Z,10.27
2018-04-07T22:50:12.333Z,11.47
2018-04-07T22:53:35.730Z,11.13
2018-04-07T22:56:59.871Z,10.33
2018-04-07T23:00:26.052Z,10.20
2018-04-07T23:03:56.428Z,12.13
2018-04-07T23:07:19.732Z,12.20
2018-04-07T23:10:43.089Z,12.20
2018-04-07T23:14:06.376Z,11.67
2018-04-07T23:17:29.676Z,11.50
2018-04-07T23:20:53.086Z,8.47
2018-04-07T23:24:17.389Z,10.47
2018-04-07T23:35:35.524Z,11.77
2018-04-07T23:38:58.915Z,10.07
2018-04-07T23:42:22.363Z,8.60
2018-04-07T23:45:45.662Z,9.10
2018-04-07T23:49:09.021Z,12.70
2018-04-07T23:52:32.389Z,10.17
2018-04-07T23:55:55.759Z,10.43
2018-04-07T23:59:19.803Z,9.87
